createdAt,value
2016-07-18T00:00:11.034Z,1014.21
2016-07-18T00:01:11.061Z,1014.19
2016-07-18T00:02:11.090Z,1014.16
2016-07-18T00:03:11.114Z,1014.18
2016-07-18T00:04:11.143Z,1014.17
2016-07-18T00:05:11.172Z,1014.13
2016-07-18T00:06:11.196Z,1014.11
2016-07-18T00:07:11.226Z,1014.16
2016-07-18T00:08:11.252Z,1014.15
2016-07-18T00:09:11.280Z,1014.11
2016-07-18T00:10:11.304Z,1014.1
2016-07-18T00:11:11.332Z,1014.1
2016-07-18T00:12:11.362Z,1014.09
2016-07-18T00:13:11.387Z,1014.14
2016-07-18T00:14:11.416Z,1014.08
2016-07-18T00:15:11.443Z,1014.1
2016-07-18T00:16:11.471Z,1014.06
2016-07-18T00:17:11.497Z,1014.11
2016-07-18T00:18:11.523Z,1014.1
2016-07-18T00:19:11.549Z,1014.11
2016-07-18T00:20:11.579Z,1014.05
2016-07-18T00:22:11.636Z,1014.03
2016-07-18T00:23:11.660Z,1014.05
2016-07-18T00:24:11.685Z,1014.09
2016-07-18T00:25:11.764Z,1014.06
2016-07-18T00:26:11.740Z,1014.09
2016-07-18T00:27:11.769Z,1014.07
2016-07-18T00:28:11.796Z,1014.06
2016-07-18T00:29:11.823Z,1014.07
2016-07-18T00:30:11.848Z,1014.04
2016-07-18T00:31:11.875Z,1014.06
2016-07-18T00:32:11.903Z,1014.06
2016-07-18T00:33:11.929Z,1014.04
2016-07-18T00:34:11.962Z,1014.04
2016-07-18T00:35:11.983Z,1014.05
2016-07-18T00:36:12.012Z,1014.01
2016-07-18T00:38:12.068Z,1014.03
2016-07-18T00:39:12.095Z,1014
2016-07-18T00:40:12.121Z,1014.05
2016-07-18T00:41:12.147Z,1014.08
2016-07-18T00:42:12.175Z,1014.06
2016-07-18T00:43:12.203Z,1014.09
2016-07-18T00:44:12.230Z,1014.07
2016-07-18T00:45:12.256Z,1014.09
2016-07-18T00:46:12.282Z,1014.08
2016-07-18T00:47:12.311Z,1014.07
2016-07-18T00:48:12.340Z,1014.08
2016-07-18T00:49:12.364Z,1014.12
2016-07-18T00:50:12.393Z,1014.09
2016-07-18T00:51:12.421Z,1014.09
2016-07-18T00:52:12.496Z,1014.15
2016-07-18T00:54:12.503Z,1014.14
2016-07-18T00:55:12.530Z,1014.14
2016-07-18T00:56:12.556Z,1014.18
2016-07-18T00:57:12.584Z,1014.11
2016-07-18T00:58:12.610Z,1014.16
2016-07-18T00:59:12.638Z,1014.11
2016-07-18T01:00:12.665Z,1014.11
2016-07-18T01:01:12.690Z,1014.11
2016-07-18T01:02:12.717Z,1014.08
2016-07-18T01:03:12.746Z,1014.11
2016-07-18T01:04:12.771Z,1014.11
2016-07-18T01:05:12.797Z,1014.1
2016-07-18T01:06:12.825Z,1014.09
2016-07-18T01:07:12.855Z,1014.05
2016-07-18T01:08:12.881Z,1014.07
2016-07-18T01:10:12.935Z,1014.07
2016-07-18T01:11:12.960Z,1014.1
2016-07-18T01:12:12.987Z,1014.02
2016-07-18T01:13:13.014Z,1014.03
2016-07-18T01:14:13.044Z,1014
2016-07-18T01:15:13.070Z,1014.02
2016-07-18T01:16:13.095Z,1014.01
2016-07-18T01:17:13.125Z,1013.99
2016-07-18T01:18:13.152Z,1014.02
2016-07-18T01:19:13.176Z,1013.98
2016-07-18T01:20:13.203Z,1013.98
2016-07-18T01:21:13.233Z,1013.95
2016-07-18T01:22:13.259Z,1013.92
2016-07-18T01:23:13.286Z,1013.91
2016-07-18T01:25:13.344Z,1013.91
2016-07-18T01:26:13.368Z,1013.9
2016-07-18T01:27:13.394Z,1013.91
2016-07-18T01:28:13.424Z,1013.91
2016-07-18T01:29:13.450Z,1013.91
2016-07-18T01:30:13.481Z,1013.97
2016-07-18T01:31:13.506Z,1013.95
2016-07-18T01:32:13.530Z,1013.94
2016-07-18T01:33:13.559Z,1013.99
2016-07-18T01:34:13.586Z,1013.92
2016-07-18T01:35:13.612Z,1013.92
2016-07-18T01:36:13.639Z,1013.93
2016-07-18T01:37:13.666Z,1013.95
2016-07-18T01:38:13.698Z,1013.94
2016-07-18T01:39:13.720Z,1013.98
2016-07-18T01:40:13.748Z,1013.95
2016-07-18T01:41:13.776Z,1013.97
2016-07-18T01:42:13.801Z,1013.95
2016-07-18T01:43:13.828Z,1013.96
2016-07-18T01:44:13.857Z,1013.92
2016-07-18T01:45:13.882Z,1013.89
2016-07-18T01:46:13.912Z,1013.95
2016-07-18T01:47:13.937Z,1013.97
2016-07-18T01:48:13.966Z,1013.96
2016-07-18T01:49:13.993Z,1013.97
2016-07-18T01:50:14.020Z,1013.91
2016-07-18T01:51:14.048Z,1013.91
2016-07-18T01:52:14.073Z,1013.92
2016-07-18T01:53:14.101Z,1013.9
2016-07-18T01:54:14.128Z,1013.93
2016-07-18T01:55:14.155Z,1013.91
2016-07-18T01:57:14.210Z,1013.96
2016-07-18T01:58:14.237Z,1013.94
2016-07-18T01:59:14.262Z,1013.89
2016-07-18T02:00:14.289Z,1013.96
2016-07-18T02:01:14.318Z,1013.95
2016-07-18T02:02:14.345Z,1013.92
2016-07-18T02:03:14.370Z,1013.87
2016-07-18T02:04:14.400Z,1013.89
2016-07-18T02:05:14.423Z,1013.85
2016-07-18T02:06:14.450Z,1013.86
2016-07-18T02:07:14.479Z,1013.85
2016-07-18T02:08:14.507Z,1013.84
2016-07-18T02:09:14.532Z,1013.83
2016-07-18T02:10:14.558Z,1013.84
2016-07-18T02:11:14.586Z,1013.85
2016-07-18T02:13:14.642Z,1013.85
2016-07-18T02:14:14.669Z,1013.81
2016-07-18T02:15:14.693Z,1013.82
2016-07-18T02:16:14.721Z,1013.88
2016-07-18T02:17:14.749Z,1013.84
2016-07-18T02:18:14.775Z,1013.82
2016-07-18T02:19:14.802Z,1013.8
2016-07-18T02:20:14.831Z,1013.79
2016-07-18T02:21:14.855Z,1013.83
2016-07-18T02:22:14.885Z,1013.82
2016-07-18T02:23:14.913Z,1013.83
2016-07-18T02:24:14.937Z,1013.79
2016-07-18T02:25:14.964Z,1013.77
2016-07-18T02:26:14.991Z,1013.8
2016-07-18T02:27:15.020Z,1013.79
2016-07-18T02:29:15.071Z,1013.77
2016-07-18T02:30:15.099Z,1013.8
2016-07-18T02:31:15.127Z,1013.77
2016-07-18T02:32:15.152Z,1013.79
2016-07-18T02:33:15.182Z,1013.75
2016-07-18T02:34:15.207Z,1013.78
2016-07-18T02:35:15.234Z,1013.75
2016-07-18T02:36:15.260Z,1013.76
2016-07-18T02:37:15.290Z,1013.73
2016-07-18T02:38:15.315Z,1013.77
2016-07-18T02:39:15.343Z,1013.75
2016-07-18T02:40:15.369Z,1013.78
2016-07-18T02:41:15.396Z,1013.74
2016-07-18T02:42:15.426Z,1013.78
2016-07-18T02:43:15.449Z,1013.77
2016-07-18T02:45:15.512Z,1013.79
2016-07-18T02:46:15.533Z,1013.84
2016-07-18T02:47:15.558Z,1013.82
2016-07-18T02:48:15.584Z,1013.82
2016-07-18T02:49:15.614Z,1013.82
2016-07-18T02:50:15.639Z,1013.81
2016-07-18T02:51:15.676Z,1013.79
2016-07-18T02:52:15.693Z,1013.84
2016-07-18T02:53:15.719Z,1013.81
2016-07-18T02:54:15.745Z,1013.87
2016-07-18T02:55:15.775Z,1013.86
2016-07-18T02:56:15.801Z,1013.82
2016-07-18T02:57:15.829Z,1013.85
2016-07-18T02:58:15.857Z,1013.86
2016-07-18T03:00:15.911Z,1013.85
2016-07-18T03:01:15.937Z,1013.83
2016-07-18T03:02:15.962Z,1013.83
2016-07-18T03:03:15.991Z,1013.89
2016-07-18T03:04:16.017Z,1013.83
2016-07-18T03:05:16.045Z,1013.84
2016-07-18T03:06:16.072Z,1013.85
2016-07-18T03:07:16.098Z,1013.89
2016-07-18T03:08:16.125Z,1013.9
2016-07-18T03:09:16.150Z,1013.87
2016-07-18T03:10:16.177Z,1013.86
2016-07-18T03:11:16.207Z,1013.87
2016-07-18T03:12:16.230Z,1013.9
2016-07-18T03:13:16.260Z,1013.86
2016-07-18T03:14:16.285Z,1013.88
2016-07-18T03:15:16.314Z,1013.86
2016-07-18T03:16:16.338Z,1013.86
2016-07-18T03:17:16.366Z,1013.85
2016-07-18T03:18:16.392Z,1013.89
2016-07-18T03:19:16.420Z,1013.89
2016-07-18T03:20:16.448Z,1013.86
2016-07-18T03:21:16.474Z,1013.91
2016-07-18T03:22:16.501Z,1013.87
2016-07-18T03:23:16.527Z,1013.86
2016-07-18T03:24:16.552Z,1013.88
2016-07-18T03:25:16.582Z,1013.88
2016-07-18T03:26:16.609Z,1013.87
2016-07-18T03:27:16.636Z,1013.9
2016-07-18T03:28:16.660Z,1013.87
2016-07-18T03:29:16.688Z,1013.89
2016-07-18T03:30:16.713Z,1013.9
2016-07-18T03:32:16.768Z,1013.92
2016-07-18T03:33:16.794Z,1013.94
2016-07-18T03:34:16.822Z,1013.93
2016-07-18T03:35:16.850Z,1013.97
2016-07-18T03:36:16.876Z,1013.95
2016-07-18T03:37:16.901Z,1013.95
2016-07-18T03:38:16.928Z,1013.99
2016-07-18T03:39:16.954Z,1013.99
2016-07-18T03:40:16.982Z,1013.98
2016-07-18T03:41:17.010Z,1014.02
2016-07-18T03:42:17.042Z,1014
2016-07-18T03:43:17.064Z,1014
2016-07-18T03:44:17.089Z,1014.03
2016-07-18T03:45:17.117Z,1014.08
2016-07-18T03:46:17.144Z,1014.07
2016-07-18T03:48:17.198Z,1014.06
2016-07-18T03:49:17.222Z,1014.06
2016-07-18T03:50:17.251Z,1014.11
2016-07-18T03:51:17.277Z,1014.07
2016-07-18T03:52:17.305Z,1014.07
2016-07-18T03:53:17.331Z,1014.07
2016-07-18T03:54:17.357Z,1014.07
2016-07-18T03:55:17.383Z,1014.1
2016-07-18T03:56:17.412Z,1014.06
2016-07-18T03:57:17.439Z,1014.09
2016-07-18T03:58:17.463Z,1014
2016-07-18T03:59:17.494Z,1014.04
2016-07-18T04:00:17.519Z,1014.05
2016-07-18T04:01:17.551Z,1014.13
2016-07-18T04:02:17.573Z,1014.1
2016-07-18T04:04:17.623Z,1014.08
2016-07-18T04:05:17.652Z,1014.09
2016-07-18T04:06:17.678Z,1014.1
2016-07-18T04:07:17.706Z,1014.1
2016-07-18T04:08:17.733Z,1014.1
2016-07-18T04:09:17.759Z,1014.1
2016-07-18T04:10:17.788Z,1014.13
2016-07-18T04:11:17.814Z,1014.16
2016-07-18T04:12:17.839Z,1014.17
2016-07-18T04:13:17.882Z,1014.14
2016-07-18T04:14:17.892Z,1014.16
2016-07-18T04:15:17.927Z,1014.17
2016-07-18T04:16:17.946Z,1014.17
2016-07-18T04:17:17.977Z,1014.2
2016-07-18T04:18:18.004Z,1014.24
2016-07-18T04:20:18.056Z,1014.23
2016-07-18T04:21:18.085Z,1014.17
2016-07-18T04:22:18.111Z,1014.2
2016-07-18T04:23:18.136Z,1014.22
2016-07-18T04:24:18.163Z,1014.21
2016-07-18T04:25:18.201Z,1014.24
2016-07-18T04:26:18.218Z,1014.29
2016-07-18T04:27:18.245Z,1014.24
2016-07-18T04:28:18.270Z,1014.25
2016-07-18T04:29:18.297Z,1014.27
2016-07-18T04:30:18.325Z,1014.29
2016-07-18T04:31:18.353Z,1014.24
2016-07-18T04:32:18.380Z,1014.23
2016-07-18T04:33:18.407Z,1014.25
2016-07-18T04:35:18.463Z,1014.24
2016-07-18T04:36:18.490Z,1014.22
2016-07-18T04:37:18.517Z,1014.18
2016-07-18T04:38:18.545Z,1014.21
2016-07-18T04:39:18.572Z,1014.2
2016-07-18T04:40:18.599Z,1014.23
2016-07-18T04:41:18.626Z,1014.21
2016-07-18T04:42:18.650Z,1014.29
2016-07-18T04:43:18.677Z,1014.26
2016-07-18T04:44:18.704Z,1014.25
2016-07-18T04:45:18.733Z,1014.23
2016-07-18T04:46:18.758Z,1014.22
2016-07-18T04:47:18.784Z,1014.22
2016-07-18T04:48:18.814Z,1014.21
2016-07-18T04:49:18.839Z,1014.17
2016-07-18T04:50:18.866Z,1014.18
2016-07-18T04:51:18.894Z,1014.21
2016-07-18T04:52:18.922Z,1014.22
2016-07-18T04:53:18.948Z,1014.19
2016-07-18T04:54:18.975Z,1014.17
2016-07-18T04:55:18.999Z,1014.19
2016-07-18T04:56:19.027Z,1014.21
2016-07-18T04:57:19.054Z,1014.22
2016-07-18T04:58:19.081Z,1014.2
2016-07-18T04:59:19.113Z,1014.21
2016-07-18T05:00:19.135Z,1014.21
2016-07-18T05:01:19.161Z,1014.23
2016-07-18T05:02:19.190Z,1014.23
2016-07-18T05:03:19.217Z,1014.22
2016-07-18T05:04:19.244Z,1014.22
2016-07-18T05:05:19.267Z,1014.22
2016-07-18T05:07:19.325Z,1014.21
2016-07-18T05:08:19.349Z,1014.23
2016-07-18T05:09:19.376Z,1014.24
2016-07-18T05:10:19.404Z,1014.25
2016-07-18T05:11:19.430Z,1014.24
2016-07-18T05:12:19.458Z,1014.25
2016-07-18T05:13:19.485Z,1014.26
2016-07-18T05:14:19.509Z,1014.26
2016-07-18T05:15:19.538Z,1014.3
2016-07-18T05:16:19.564Z,1014.31
2016-07-18T05:17:19.591Z,1014.28
2016-07-18T05:18:19.619Z,1014.29
2016-07-18T05:19:19.643Z,1014.35
2016-07-18T05:20:19.672Z,1014.31
2016-07-18T05:21:19.698Z,1014.36
2016-07-18T05:23:19.750Z,1014.37
2016-07-18T05:24:19.776Z,1014.36
2016-07-18T05:25:19.804Z,1014.4
2016-07-18T05:26:19.833Z,1014.39
2016-07-18T05:27:19.869Z,1014.37
2016-07-18T05:28:19.885Z,1014.42
2016-07-18T05:29:19.912Z,1014.42
2016-07-18T05:30:19.937Z,1014.41
2016-07-18T05:31:19.980Z,1014.43
2016-07-18T05:32:19.990Z,1014.38
2016-07-18T05:33:20.019Z,1014.4
2016-07-18T05:34:20.046Z,1014.41
2016-07-18T05:35:20.073Z,1014.44
2016-07-18T05:36:20.097Z,1014.41
2016-07-18T05:37:20.126Z,1014.43
2016-07-18T05:39:20.177Z,1014.47
2016-07-18T05:40:20.206Z,1014.42
2016-07-18T05:41:20.233Z,1014.42
2016-07-18T05:42:20.259Z,1014.43
2016-07-18T05:43:20.285Z,1014.46
2016-07-18T05:44:20.311Z,1014.42
2016-07-18T05:45:20.340Z,1014.37
2016-07-18T05:46:20.365Z,1014.42
2016-07-18T05:47:20.393Z,1014.39
2016-07-18T05:48:20.417Z,1014.4
2016-07-18T05:49:20.444Z,1014.4
2016-07-18T05:50:20.473Z,1014.39
2016-07-18T05:51:20.497Z,1014.35
2016-07-18T05:52:20.524Z,1014.34
2016-07-18T05:53:20.552Z,1014.4
2016-07-18T05:55:20.605Z,1014.36
2016-07-18T05:56:20.633Z,1014.4
2016-07-18T05:57:20.656Z,1014.38
2016-07-18T05:58:20.686Z,1014.38
2016-07-18T05:59:20.711Z,1014.39
2016-07-18T06:00:20.738Z,1014.37
2016-07-18T06:01:20.765Z,1014.4
2016-07-18T06:02:20.792Z,1014.43
2016-07-18T06:03:20.817Z,1014.4
2016-07-18T06:04:20.842Z,1014.42
2016-07-18T06:05:20.870Z,1014.4
2016-07-18T06:06:20.904Z,1014.35
2016-07-18T06:07:20.926Z,1014.42
2016-07-18T06:08:20.950Z,1014.4
2016-07-18T06:10:21.006Z,1014.42
2016-07-18T06:11:21.030Z,1014.45
2016-07-18T06:12:21.059Z,1014.42
2016-07-18T06:13:21.086Z,1014.47
2016-07-18T06:14:21.111Z,1014.45
2016-07-18T06:15:21.139Z,1014.44
2016-07-18T06:16:21.166Z,1014.43
2016-07-18T06:17:21.198Z,1014.47
2016-07-18T06:18:21.216Z,1014.46
2016-07-18T06:19:21.244Z,1014.48
2016-07-18T06:20:21.272Z,1014.48
2016-07-18T06:21:21.298Z,1014.51
2016-07-18T06:22:21.326Z,1014.47
2016-07-18T06:23:21.354Z,1014.51
2016-07-18T06:24:21.380Z,1014.52
2016-07-18T06:25:21.406Z,1014.51
2016-07-18T06:26:21.434Z,1014.55
2016-07-18T06:27:21.459Z,1014.54
2016-07-18T06:28:21.491Z,1014.52
2016-07-18T06:29:21.512Z,1014.5
2016-07-18T06:30:21.538Z,1014.53
2016-07-18T06:31:21.566Z,1014.47
2016-07-18T06:32:21.594Z,1014.49
2016-07-18T06:33:21.621Z,1014.49
2016-07-18T06:34:21.647Z,1014.48
2016-07-18T06:35:21.673Z,1014.49
2016-07-18T06:36:21.701Z,1014.51
2016-07-18T06:37:21.729Z,1014.45
2016-07-18T06:38:21.753Z,1014.45
2016-07-18T06:39:21.781Z,1014.49
2016-07-18T06:40:21.808Z,1014.39
2016-07-18T06:42:21.861Z,1014.44
2016-07-18T06:43:21.891Z,1014.43
2016-07-18T06:44:21.916Z,1014.49
2016-07-18T06:45:21.942Z,1014.5
2016-07-18T06:46:21.975Z,1014.5
2016-07-18T06:47:21.996Z,1014.5
2016-07-18T06:48:22.025Z,1014.48
2016-07-18T06:49:22.050Z,1014.54
2016-07-18T06:50:22.077Z,1014.55
2016-07-18T06:51:22.102Z,1014.51
2016-07-18T06:52:22.130Z,1014.48
2016-07-18T06:53:22.157Z,1014.57
2016-07-18T06:54:22.187Z,1014.59
2016-07-18T06:55:22.211Z,1014.56
2016-07-18T06:56:22.237Z,1014.61
2016-07-18T06:58:22.292Z,1014.61
2016-07-18T06:59:22.316Z,1014.62
2016-07-18T07:00:22.344Z,1014.63
2016-07-18T07:01:22.373Z,1014.64
2016-07-18T07:02:22.400Z,1014.67
2016-07-18T07:03:22.426Z,1014.64
2016-07-18T07:04:22.454Z,1014.68
2016-07-18T07:05:22.481Z,1014.69
2016-07-18T07:06:22.508Z,1014.68
2016-07-18T07:07:22.532Z,1014.68
2016-07-18T07:08:22.561Z,1014.68
2016-07-18T07:09:22.587Z,1014.59
2016-07-18T07:10:22.615Z,1014.61
2016-07-18T07:11:22.640Z,1014.61
2016-07-18T07:12:22.668Z,1014.63
2016-07-18T07:14:22.730Z,1014.59
2016-07-18T07:15:22.750Z,1014.59
2016-07-18T07:16:22.777Z,1014.58
2016-07-18T07:17:22.801Z,1014.6
2016-07-18T07:18:22.829Z,1014.6
2016-07-18T07:19:22.858Z,1014.62
2016-07-18T07:20:22.883Z,1014.62
2016-07-18T07:21:22.913Z,1014.62
2016-07-18T07:22:22.938Z,1014.59
2016-07-18T07:23:22.968Z,1014.64
2016-07-18T07:24:22.995Z,1014.58
2016-07-18T07:25:23.022Z,1014.57
2016-07-18T07:26:23.048Z,1014.59
2016-07-18T07:27:23.075Z,1014.58
2016-07-18T07:28:23.105Z,1014.61
2016-07-18T07:30:23.160Z,1014.67
2016-07-18T07:31:23.188Z,1014.6
2016-07-18T07:32:23.214Z,1014.58
2016-07-18T07:33:23.242Z,1014.61
2016-07-18T07:34:23.268Z,1014.61
2016-07-18T07:35:23.297Z,1014.61
2016-07-18T07:36:23.323Z,1014.59
2016-07-18T07:37:23.351Z,1014.62
2016-07-18T07:38:23.379Z,1014.65
2016-07-18T07:39:23.407Z,1014.59
2016-07-18T07:40:23.436Z,1014.6
2016-07-18T07:41:23.461Z,1014.61
2016-07-18T07:42:23.492Z,1014.62
2016-07-18T07:43:23.518Z,1014.63
2016-07-18T07:45:23.574Z,1014.64
2016-07-18T07:46:23.603Z,1014.64
2016-07-18T07:47:23.632Z,1014.64
2016-07-18T07:48:23.660Z,1014.61
2016-07-18T07:49:23.688Z,1014.65
2016-07-18T07:50:23.715Z,1014.67
2016-07-18T07:51:23.751Z,1014.65
2016-07-18T07:52:23.770Z,1014.64
2016-07-18T07:53:23.797Z,1014.7
2016-07-18T07:54:23.825Z,1014.74
2016-07-18T07:55:23.856Z,1014.73
2016-07-18T07:56:23.885Z,1014.79
2016-07-18T07:57:23.910Z,1014.75
2016-07-18T07:58:23.939Z,1014.78
2016-07-18T07:59:23.967Z,1014.8
2016-07-18T08:00:23.994Z,1014.77
2016-07-18T08:01:24.022Z,1014.82
2016-07-18T08:02:24.050Z,1014.73
2016-07-18T08:03:24.078Z,1014.77
2016-07-18T08:04:24.106Z,1014.77
2016-07-18T08:05:24.136Z,1014.82
2016-07-18T08:06:24.163Z,1014.77
2016-07-18T08:07:24.194Z,1014.78
2016-07-18T08:08:24.220Z,1014.83
2016-07-18T08:09:24.247Z,1014.81
2016-07-18T08:10:24.276Z,1014.78
2016-07-18T08:11:24.304Z,1014.79
2016-07-18T08:12:24.338Z,1014.78
2016-07-18T08:13:24.359Z,1014.85
2016-07-18T08:14:24.390Z,1014.81
2016-07-18T08:15:24.417Z,1014.82
2016-07-18T08:17:24.474Z,1014.81
2016-07-18T08:18:24.503Z,1014.83
2016-07-18T08:19:24.530Z,1014.79
2016-07-18T08:20:24.559Z,1014.83
2016-07-18T08:21:24.586Z,1014.87
2016-07-18T08:22:24.615Z,1014.84
2016-07-18T08:23:24.640Z,1014.94
2016-07-18T08:24:24.669Z,1014.9
2016-07-18T08:25:24.699Z,1014.96
2016-07-18T08:26:24.726Z,1014.91
2016-07-18T08:27:24.752Z,1014.9
2016-07-18T08:28:24.783Z,1014.96
2016-07-18T08:29:24.811Z,1014.97
2016-07-18T08:30:24.839Z,1014.9
2016-07-18T08:31:24.865Z,1014.89
2016-07-18T08:33:24.923Z,1014.91
2016-07-18T08:34:24.949Z,1014.94
2016-07-18T08:35:24.978Z,1014.93
2016-07-18T08:36:25.005Z,1015.02
2016-07-18T08:37:25.033Z,1014.99
2016-07-18T08:38:25.062Z,1014.98
2016-07-18T08:39:25.088Z,1015.01
2016-07-18T08:40:25.118Z,1015.03
2016-07-18T08:41:25.142Z,1014.99
2016-07-18T08:42:25.171Z,1014.99
2016-07-18T08:43:25.201Z,1015.06
2016-07-18T08:44:25.228Z,1015.02
2016-07-18T08:45:25.254Z,1015.06
2016-07-18T08:46:25.282Z,1014.99
2016-07-18T08:47:25.311Z,1015.04
2016-07-18T08:49:25.369Z,1015.03
2016-07-18T08:50:25.394Z,1015.03
2016-07-18T08:51:25.423Z,1014.99
2016-07-18T08:52:25.453Z,1014.98
2016-07-18T08:53:25.479Z,1014.98
2016-07-18T08:54:25.507Z,1015
2016-07-18T08:55:25.536Z,1015.04
2016-07-18T08:56:25.563Z,1015.12
2016-07-18T08:57:25.598Z,1015.05
2016-07-18T08:58:25.619Z,1015.07
2016-07-18T08:59:25.649Z,1015.03
2016-07-18T09:00:25.674Z,1015.1
2016-07-18T09:01:25.703Z,1015.09
2016-07-18T09:02:25.732Z,1015.13
2016-07-18T09:03:25.760Z,1015.17
2016-07-18T09:05:25.816Z,1015.17
2016-07-18T09:06:25.843Z,1015.19
2016-07-18T09:07:25.870Z,1015.16
2016-07-18T09:08:25.899Z,1015.18
2016-07-18T09:09:25.924Z,1015.17
2016-07-18T09:10:25.954Z,1015.22
2016-07-18T09:11:25.979Z,1015.23
2016-07-18T09:12:26.007Z,1015.23
2016-07-18T09:13:26.037Z,1015.25
2016-07-18T09:14:26.062Z,1015.3
2016-07-18T09:15:26.089Z,1015.28
2016-07-18T09:16:26.119Z,1015.27
2016-07-18T09:17:26.145Z,1015.33
2016-07-18T09:18:26.173Z,1015.31
2016-07-18T09:20:26.229Z,1015.33
2016-07-18T09:21:26.255Z,1015.3
2016-07-18T09:22:26.285Z,1015.32
2016-07-18T09:23:26.313Z,1015.27
2016-07-18T09:24:26.341Z,1015.36
2016-07-18T09:25:26.367Z,1015.39
2016-07-18T09:26:26.393Z,1015.33
2016-07-18T09:27:26.423Z,1015.37
2016-07-18T09:28:26.451Z,1015.3
2016-07-18T09:29:26.477Z,1015.4
2016-07-18T09:30:26.505Z,1015.39
2016-07-18T09:31:26.531Z,1015.36
2016-07-18T09:32:26.560Z,1015.33
2016-07-18T09:33:26.588Z,1015.38
2016-07-18T09:34:26.614Z,1015.34
2016-07-18T09:35:26.642Z,1015.45
2016-07-18T09:36:26.669Z,1015.37
2016-07-18T09:37:26.697Z,1015.39
2016-07-18T09:38:26.727Z,1015.37
2016-07-18T09:39:26.752Z,1015.38
2016-07-18T09:40:26.781Z,1015.4
2016-07-18T09:41:26.810Z,1015.34
2016-07-18T09:42:26.835Z,1015.43
2016-07-18T09:43:26.863Z,1015.4
2016-07-18T09:44:26.892Z,1015.38
2016-07-18T09:45:26.919Z,1015.38
2016-07-18T09:46:26.947Z,1015.38
2016-07-18T09:47:26.974Z,1015.4
2016-07-18T09:48:27.003Z,1015.4
2016-07-18T09:49:27.031Z,1015.41
2016-07-18T09:50:27.055Z,1015.39
2016-07-18T09:52:27.113Z,1015.54
2016-07-18T09:53:27.140Z,1015.48
2016-07-18T09:54:27.165Z,1015.49
2016-07-18T09:55:27.194Z,1015.45
2016-07-18T09:56:27.223Z,1015.5
2016-07-18T09:57:27.249Z,1015.48
2016-07-18T09:58:27.275Z,1015.49
2016-07-18T09:59:27.304Z,1015.5
2016-07-18T10:00:27.331Z,1015.56
2016-07-18T10:01:27.360Z,1015.53
2016-07-18T10:02:27.385Z,1015.49
2016-07-18T10:03:27.416Z,1015.53
2016-07-18T10:04:27.443Z,1015.53
2016-07-18T10:05:27.469Z,1015.56
2016-07-18T10:06:27.495Z,1015.54
2016-07-18T10:08:27.552Z,1015.59
2016-07-18T10:09:27.579Z,1015.61
2016-07-18T10:10:27.608Z,1015.62
2016-07-18T10:11:27.637Z,1015.63
2016-07-18T10:12:27.663Z,1015.71
2016-07-18T10:13:27.689Z,1015.58
2016-07-18T10:14:27.716Z,1015.63
2016-07-18T10:15:27.748Z,1015.64
2016-07-18T10:16:27.775Z,1015.63
2016-07-18T10:17:27.802Z,1015.65
2016-07-18T10:18:27.827Z,1015.66
2016-07-18T10:19:27.857Z,1015.65
2016-07-18T10:20:27.882Z,1015.65
2016-07-18T10:21:27.910Z,1015.66
2016-07-18T10:22:27.937Z,1015.68
2016-07-18T10:24:27.994Z,1015.69
2016-07-18T10:25:28.021Z,1015.67
2016-07-18T10:26:28.049Z,1015.65
2016-07-18T10:27:28.077Z,1015.63
2016-07-18T10:28:28.104Z,1015.65
2016-07-18T10:29:28.130Z,1015.72
2016-07-18T10:30:28.157Z,1015.66
2016-07-18T10:31:28.184Z,1015.7
2016-07-18T10:32:28.215Z,1015.7
2016-07-18T10:33:28.242Z,1015.75
2016-07-18T10:34:28.268Z,1015.75
2016-07-18T10:35:28.296Z,1015.71
2016-07-18T10:36:28.326Z,1015.7
2016-07-18T10:37:28.354Z,1015.66
2016-07-18T10:38:28.380Z,1015.68
2016-07-18T10:40:28.435Z,1015.71
2016-07-18T10:41:28.465Z,1015.66
2016-07-18T10:42:28.493Z,1015.7
2016-07-18T10:43:28.521Z,1015.74
2016-07-18T10:44:28.547Z,1015.75
2016-07-18T10:45:28.574Z,1015.74
2016-07-18T10:46:28.605Z,1015.71
2016-07-18T10:47:28.631Z,1015.7
2016-07-18T10:48:28.659Z,1015.73
2016-07-18T10:49:28.687Z,1015.67
2016-07-18T10:50:28.716Z,1015.7
2016-07-18T10:51:28.743Z,1015.69
2016-07-18T10:52:28.777Z,1015.69
2016-07-18T10:53:28.801Z,1015.67
2016-07-18T10:55:28.860Z,1015.67
2016-07-18T10:56:28.885Z,1015.67
2016-07-18T10:57:28.914Z,1015.67
2016-07-18T10:58:28.943Z,1015.7
2016-07-18T10:59:28.970Z,1015.7
2016-07-18T11:00:28.998Z,1015.65
2016-07-18T11:01:29.027Z,1015.64
2016-07-18T11:02:29.055Z,1015.63
2016-07-18T11:03:29.090Z,1015.66
2016-07-18T11:04:29.113Z,1015.63
2016-07-18T11:05:29.143Z,1015.62
2016-07-18T11:06:29.171Z,1015.6
2016-07-18T11:07:29.200Z,1015.61
2016-07-18T11:08:29.225Z,1015.67
2016-07-18T11:09:29.255Z,1015.63
2016-07-18T11:10:29.287Z,1015.62
2016-07-18T11:11:29.310Z,1015.64
2016-07-18T11:12:29.341Z,1015.67
2016-07-18T11:13:29.367Z,1015.66
2016-07-18T11:14:29.395Z,1015.7
2016-07-18T11:15:29.425Z,1015.67
2016-07-18T11:16:29.455Z,1015.7
2016-07-18T11:17:29.483Z,1015.64
2016-07-18T11:18:29.509Z,1015.64
2016-07-18T11:19:29.539Z,1015.66
2016-07-18T11:20:29.565Z,1015.64
2016-07-18T11:21:29.597Z,1015.67
2016-07-18T11:22:29.624Z,1015.64
2016-07-18T11:23:29.653Z,1015.69
2016-07-18T11:24:29.682Z,1015.67
2016-07-18T11:25:29.707Z,1015.65
2016-07-18T11:27:29.768Z,1015.59
2016-07-18T11:28:29.794Z,1015.61
2016-07-18T11:29:29.821Z,1015.61
2016-07-18T11:30:29.852Z,1015.64
2016-07-18T11:31:29.880Z,1015.65
2016-07-18T11:32:29.911Z,1015.66
2016-07-18T11:33:29.937Z,1015.61
2016-07-18T11:34:29.969Z,1015.65
2016-07-18T11:35:29.995Z,1015.61
2016-07-18T11:36:30.024Z,1015.62
2016-07-18T11:37:30.051Z,1015.64
2016-07-18T11:38:30.082Z,1015.61
2016-07-18T11:39:30.111Z,1015.57
2016-07-18T11:40:30.139Z,1015.58
2016-07-18T11:41:30.168Z,1015.59
2016-07-18T11:43:30.227Z,1015.58
2016-07-18T11:44:30.254Z,1015.57
2016-07-18T11:45:30.285Z,1015.54
2016-07-18T11:46:30.315Z,1015.55
2016-07-18T11:47:30.343Z,1015.51
2016-07-18T11:48:30.373Z,1015.54
2016-07-18T11:49:30.403Z,1015.6
2016-07-18T11:50:30.432Z,1015.51
2016-07-18T11:51:30.457Z,1015.59
2016-07-18T11:52:30.487Z,1015.58
2016-07-18T11:53:30.517Z,1015.64
2016-07-18T11:54:30.548Z,1015.56
2016-07-18T11:55:30.575Z,1015.56
2016-07-18T11:56:30.605Z,1015.54
2016-07-18T11:57:30.634Z,1015.57
2016-07-18T11:59:30.693Z,1015.54
2016-07-18T12:00:30.724Z,1015.53
2016-07-18T12:01:30.751Z,1015.61
2016-07-18T12:02:30.779Z,1015.63
2016-07-18T12:03:30.810Z,1015.59
2016-07-18T12:04:30.838Z,1015.59
2016-07-18T12:05:30.869Z,1015.57
2016-07-18T12:06:30.897Z,1015.6
2016-07-18T12:07:30.925Z,1015.6
2016-07-18T12:08:30.955Z,1015.61
2016-07-18T12:09:30.982Z,1015.67
2016-07-18T12:10:31.012Z,1015.69
2016-07-18T12:11:31.047Z,1015.64
2016-07-18T12:12:31.070Z,1015.65
2016-07-18T12:13:31.099Z,1015.63
2016-07-18T12:15:31.156Z,1015.66
2016-07-18T12:16:31.184Z,1015.61
2016-07-18T12:17:31.212Z,1015.65
2016-07-18T12:18:31.241Z,1015.67
2016-07-18T12:19:31.273Z,1015.67
2016-07-18T12:20:31.298Z,1015.68
2016-07-18T12:21:31.329Z,1015.72
2016-07-18T12:22:31.359Z,1015.68
2016-07-18T12:23:31.386Z,1015.69
2016-07-18T12:24:31.415Z,1015.69
2016-07-18T12:25:31.442Z,1015.75
2016-07-18T12:26:31.473Z,1015.68
2016-07-18T12:27:31.502Z,1015.7
2016-07-18T12:28:31.531Z,1015.71
2016-07-18T12:30:31.587Z,1015.72
2016-07-18T12:31:31.613Z,1015.67
2016-07-18T12:32:31.644Z,1015.68
2016-07-18T12:33:31.671Z,1015.77
2016-07-18T12:34:31.702Z,1015.7
2016-07-18T12:35:31.729Z,1015.76
2016-07-18T12:36:31.756Z,1015.73
2016-07-18T12:37:31.787Z,1015.74
2016-07-18T12:38:31.815Z,1015.74
2016-07-18T12:39:31.851Z,1015.74
2016-07-18T12:40:31.872Z,1015.73
2016-07-18T12:41:31.909Z,1015.74
2016-07-18T12:42:31.928Z,1015.84
2016-07-18T12:43:31.957Z,1015.83
2016-07-18T12:44:31.986Z,1015.78
2016-07-18T12:45:32.015Z,1015.81
2016-07-18T12:46:32.041Z,1015.82
2016-07-18T12:47:32.069Z,1015.8
2016-07-18T12:48:32.099Z,1015.85